createdAt,value
2019-05-20T00:01:16.012Z,98150.98
2019-05-20T00:03:46.152Z,98159.22
2019-05-20T00:06:16.001Z,98161.91
2019-05-20T00:08:45.888Z,98156.11
2019-05-20T00:11:15.932Z,98160.11
2019-05-20T00:13:45.868Z,98165.67
2019-05-20T00:16:16.149Z,98169.68
2019-05-20T00:18:46.283Z,98167.08
2019-05-20T00:21:16.339Z,98162.89
2019-05-20T00:23:46.234Z,98157.09
2019-05-20T00:26:16.143Z,98152.60
2019-05-20T00:28:47.514Z,98149.20
2019-05-20T00:31:17.514Z,98152.64
2019-05-20T00:33:47.919Z,98157.39
2019-05-20T00:36:17.997Z,98156.56
2019-05-20T00:39:06.975Z,98151.05
2019-05-20T00:41:36.968Z,98152.38
2019-05-20T00:44:06.891Z,98154.19
2019-05-20T00:46:39.324Z,98150.48
2019-05-20T00:49:09.345Z,98154.97
2019-05-20T00:51:39.942Z,98159.20
2019-05-20T00:54:10.235Z,98151.84
2019-05-20T00:56:40.265Z,98154.19
2019-05-20T00:59:10.462Z,98159.20
2019-05-20T01:01:40.414Z,98155.24
2019-05-20T01:04:10.419Z,98154.99
2019-05-20T01:06:40.349Z,98146.31
2019-05-20T01:09:10.766Z,98145.57
2019-05-20T01:11:40.680Z,98145.57
2019-05-20T01:14:10.642Z,98142.14
2019-05-20T01:16:41.379Z,98138.48
2019-05-20T01:19:11.294Z,98137.77
2019-05-20T01:21:41.940Z,98135.70
2019-05-20T01:24:12.013Z,98135.99
2019-05-20T01:26:41.929Z,98125.77
2019-05-20T01:29:11.811Z,98130.03
2019-05-20T01:31:41.752Z,98131.91
2019-05-20T01:34:11.995Z,98128.24
2019-05-20T01:36:41.891Z,98126.69
2019-05-20T01:39:10.685Z,98129.86
2019-05-20T01:41:40.577Z,98061.73
2019-05-20T01:44:10.421Z,98133.84
2019-05-20T01:46:43.435Z,98134.13
2019-05-20T01:49:13.328Z,98135.48
2019-05-20T01:51:45.086Z,98122.05
2019-05-20T01:54:16.911Z,98117.86
2019-05-20T01:56:46.859Z,98109.68
2019-05-20T01:59:17.110Z,98105.98
2019-05-20T02:01:47.148Z,98108.63
2019-05-20T02:04:17.036Z,98108.09
2019-05-20T02:06:46.913Z,98106.01
2019-05-20T02:09:17.042Z,98107.04
2019-05-20T02:11:46.913Z,98103.35
2019-05-20T02:14:20.511Z,98109.14
2019-05-20T02:16:50.420Z,98113.91
2019-05-20T02:19:20.391Z,98111.78
2019-05-20T02:21:50.233Z,98115.48
2019-05-20T02:24:20.072Z,98107.33
2019-05-20T02:26:49.969Z,98104.69
2019-05-20T02:29:19.953Z,98103.67
2019-05-20T02:31:49.983Z,98113.95
2019-05-20T02:34:19.837Z,98106.61
2019-05-20T02:36:49.742Z,98106.30
2019-05-20T02:39:20.139Z,98101.27
2019-05-20T02:41:50.083Z,98102.59
2019-05-20T02:44:19.989Z,98094.95
2019-05-20T02:46:49.906Z,98099.95
2019-05-20T02:49:19.943Z,98099.16
2019-05-20T02:51:49.938Z,98092.88
2019-05-20T02:54:19.849Z,98097.12
2019-05-20T02:56:49.776Z,98089.16
2019-05-20T02:59:19.992Z,98003.44
2019-05-20T03:01:49.938Z,98094.95
2019-05-20T03:04:20.122Z,98087.28
2019-05-20T03:06:50.124Z,98088.34
2019-05-20T03:09:20.503Z,98093.33
2019-05-20T03:11:50.400Z,98093.30
2019-05-20T03:14:20.560Z,98093.56
2019-05-20T03:16:50.541Z,98093.27
2019-05-20T03:19:20.465Z,98093.53
2019-05-20T03:21:50.538Z,98093.04
2019-05-20T03:24:20.592Z,98096.70
2019-05-20T03:26:50.902Z,98094.36
2019-05-20T03:29:21.010Z,98097.02
2019-05-20T03:31:50.876Z,98089.11
2019-05-20T03:34:44.280Z,98088.58
2019-05-20T03:36:52.859Z,98093.36
2019-05-20T03:39:23.215Z,98091.24
2019-05-20T03:41:53.387Z,98097.05
2019-05-20T03:44:23.596Z,98089.38
2019-05-20T03:46:53.552Z,98089.14
2019-05-20T03:49:23.536Z,98089.39
2019-05-20T03:51:53.364Z,98085.70
2019-05-20T03:54:23.350Z,98090.18
2019-05-20T03:56:53.211Z,98085.70
2019-05-20T03:59:23.281Z,98084.91
2019-05-20T04:01:53.132Z,98085.44
2019-05-20T04:04:25.171Z,98088.34
2019-05-20T04:06:54.614Z,98093.06
2019-05-20T04:09:24.536Z,98089.64
2019-05-20T04:11:54.409Z,98090.95
2019-05-20T04:14:24.522Z,98087.53
2019-05-20T04:16:54.375Z,98096.47
2019-05-20T04:19:24.671Z,98094.86
2019-05-20T04:21:54.767Z,98095.88
2019-05-20T04:24:24.779Z,98087.18
2019-05-20T04:27:00.787Z,98085.83
2019-05-20T04:29:30.877Z,97946.44
2019-05-20T04:32:00.961Z,98087.05
2019-05-20T04:34:31.035Z,98043.91
2019-05-20T04:37:00.961Z,98090.86
2019-05-20T04:39:30.925Z,98082.09
2019-05-20T04:42:00.843Z,98083.86
2019-05-20T04:44:30.954Z,98083.81
2019-05-20T04:47:00.948Z,98093.49
2019-05-20T04:49:30.821Z,98083.97
2019-05-20T04:52:00.686Z,98077.33
2019-05-20T04:54:30.713Z,98072.53
2019-05-20T04:57:00.712Z,98080.37
2019-05-20T04:59:31.474Z,98081.73
2019-05-20T05:02:01.711Z,98082.43
2019-05-20T05:04:31.954Z,98082.02
2019-05-20T05:07:01.967Z,98081.80
2019-05-20T05:09:32.226Z,98073.19
2019-05-20T05:12:03.363Z,98078.88
2019-05-20T05:14:33.809Z,98073.09
2019-05-20T05:17:04.462Z,98076.39
2019-05-20T05:19:34.698Z,98075.34
2019-05-20T05:22:05.318Z,98075.34
2019-05-20T05:24:35.680Z,98068.47
2019-05-20T05:27:05.877Z,98075.31
2019-05-20T05:29:36.238Z,98076.05
2019-05-20T05:32:06.335Z,98070.09
2019-05-20T05:34:36.632Z,98078.59
2019-05-20T05:39:36.160Z,98084.00
2019-05-20T05:42:06.439Z,98080.52
2019-05-20T05:44:37.568Z,98078.65
2019-05-20T05:47:09.171Z,98079.19
2019-05-20T05:49:41.058Z,98082.02
2019-05-20T05:52:11.088Z,98084.78
2019-05-20T05:54:41.258Z,98080.30
2019-05-20T05:57:11.795Z,98072.27
2019-05-20T05:59:41.999Z,98078.83
2019-05-20T06:02:11.927Z,98000.52
2019-05-20T06:04:41.962Z,98071.43
2019-05-20T06:07:12.041Z,98083.31
2019-05-20T06:09:42.115Z,98083.89
2019-05-20T06:12:12.145Z,98081.94
2019-05-20T06:14:43.577Z,98089.95
2019-05-20T06:17:13.643Z,98109.10
2019-05-20T06:19:43.797Z,98101.56
2019-05-20T06:22:15.149Z,98095.94
2019-05-20T06:24:45.204Z,98101.06
2019-05-20T06:27:15.802Z,98104.27
2019-05-20T06:29:45.608Z,98102.96
2019-05-20T06:32:16.786Z,98090.69
2019-05-20T06:34:50.371Z,98100.69
2019-05-20T06:37:22.157Z,98089.84
2019-05-20T06:39:52.453Z,98089.96
2019-05-20T06:42:22.809Z,98089.72
2019-05-20T06:44:56.635Z,98093.88
2019-05-20T06:47:24.871Z,98085.29
2019-05-20T06:49:55.161Z,98078.39
2019-05-20T06:52:35.477Z,98085.82
2019-05-20T06:54:57.063Z,98087.73
2019-05-20T06:57:26.906Z,98083.17
2019-05-20T06:59:56.986Z,98081.36
2019-05-20T07:02:27.010Z,98083.17
2019-05-20T07:04:57.466Z,98083.06
2019-05-20T07:07:27.331Z,98087.20
2019-05-20T07:09:57.361Z,98082.56
2019-05-20T07:12:40.057Z,98079.77
2019-05-20T07:14:59.411Z,98087.98
2019-05-20T07:17:29.734Z,98083.59
2019-05-20T07:20:00.520Z,98086.16
2019-05-20T07:22:30.469Z,98083.36
2019-05-20T07:25:00.630Z,98085.57
2019-05-20T07:27:30.973Z,98085.46
2019-05-20T07:30:01.293Z,98082.58
2019-05-20T07:32:31.875Z,98078.28
2019-05-20T07:35:02.409Z,98090.69
2019-05-20T07:37:32.746Z,98082.23
2019-05-20T07:40:03.558Z,98080.69
2019-05-20T07:42:38.106Z,98091.77
2019-05-20T07:45:08.793Z,98086.25
2019-05-20T07:47:39.170Z,98079.83
2019-05-20T07:50:10.914Z,98078.01
2019-05-20T07:52:41.485Z,98077.66
2019-05-20T07:55:12.342Z,98068.08
2019-05-20T07:57:44.747Z,98079.59
2019-05-20T08:00:15.099Z,98076.51
2019-05-20T08:02:45.713Z,98078.39
2019-05-20T08:05:16.130Z,98071.28
2019-05-20T08:07:52.518Z,98065.27
2019-05-20T08:10:18.526Z,98061.33
2019-05-20T08:12:48.837Z,98054.59
2019-05-20T08:15:19.263Z,98058.91
2019-05-20T08:17:49.443Z,98062.20
2019-05-20T08:20:19.895Z,98060.36
2019-05-20T08:22:49.891Z,98058.66
2019-05-20T08:25:20.947Z,98056.48
2019-05-20T08:27:51.070Z,98065.25
2019-05-20T08:30:35.251Z,98059.80
2019-05-20T08:33:06.333Z,98063.59
2019-05-20T08:35:36.443Z,98060.02
2019-05-20T08:38:06.866Z,98069.43
2019-05-20T08:43:06.034Z,98069.64
2019-05-20T08:45:39.940Z,98065.61
2019-05-20T08:48:10.232Z,97997.36
2019-05-20T08:50:40.599Z,98060.95
2019-05-20T08:53:10.768Z,98056.78
2019-05-20T08:55:40.841Z,98058.23
2019-05-20T08:58:10.885Z,98062.23
2019-05-20T09:00:41.469Z,98063.52
2019-05-20T09:03:11.946Z,97997.91
2019-05-20T09:05:42.047Z,98063.77
2019-05-20T09:08:13.032Z,98055.02
2019-05-20T09:10:47.137Z,98060.00
2019-05-20T09:13:17.945Z,98057.39
2019-05-20T09:18:17.722Z,98058.09
2019-05-20T09:20:47.706Z,98059.72
2019-05-20T09:23:17.662Z,98051.56
2019-05-20T09:25:47.990Z,98056.86
2019-05-20T09:28:18.228Z,98054.95
2019-05-20T09:30:48.417Z,98052.80
2019-05-20T09:33:20.227Z,98048.97
2019-05-20T09:35:52.856Z,98043.89
2019-05-20T09:38:26.234Z,98048.31
2019-05-20T09:40:57.447Z,98037.94
2019-05-20T09:43:28.600Z,98030.61
2019-05-20T09:46:07.636Z,98029.47
2019-05-20T09:48:34.641Z,98025.36
2019-05-20T09:51:04.851Z,98031.53
2019-05-20T09:53:35.164Z,98027.83
2019-05-20T09:56:05.161Z,98022.90
2019-05-20T09:58:38.022Z,98024.23
2019-05-20T10:01:09.396Z,98023.41
2019-05-20T10:03:40.750Z,98019.02
2019-05-20T10:06:11.836Z,98012.41
2019-05-20T10:08:45.312Z,98015.50
2019-05-20T10:11:16.315Z,98015.95
2019-05-20T10:13:47.778Z,98011.95
2019-05-20T10:16:18.706Z,98015.82
2019-05-20T10:18:49.635Z,98021.07
2019-05-20T10:21:20.943Z,98015.73
2019-05-20T10:23:52.558Z,98007.31
2019-05-20T10:26:27.111Z,98012.06
2019-05-20T10:28:58.068Z,98003.87
2019-05-20T10:31:28.384Z,98004.48
2019-05-20T10:33:58.583Z,98000.48
2019-05-20T10:36:32.590Z,98004.81
2019-05-20T10:39:07.536Z,97994.56
2019-05-20T10:41:36.296Z,97999.42
2019-05-20T10:44:07.499Z,97992.76
2019-05-20T10:46:39.098Z,97984.03
2019-05-20T10:49:10.446Z,97982.72
2019-05-20T10:51:41.155Z,97983.23
2019-05-20T10:54:12.592Z,97979.38
2019-05-20T10:56:42.759Z,97908.75
2019-05-20T10:59:12.981Z,97976.80
2019-05-20T11:01:43.829Z,97970.76
2019-05-20T11:04:13.891Z,97971.41
2019-05-20T11:06:44.007Z,97975.29
2019-05-20T11:09:19.469Z,97976.22
2019-05-20T11:11:49.477Z,97982.50
2019-05-20T11:14:20.864Z,97979.48
2019-05-20T11:16:51.543Z,97967.52
2019-05-20T11:19:21.905Z,97957.75
2019-05-20T11:21:53.496Z,97956.19
2019-05-20T11:24:23.450Z,97958.09
2019-05-20T11:26:53.971Z,97953.63
2019-05-20T11:29:27.354Z,97961.22
2019-05-20T11:31:57.271Z,97958.13
2019-05-20T11:34:27.915Z,97957.04
2019-05-20T11:36:58.223Z,97950.51
2019-05-20T11:39:33.330Z,97953.19
2019-05-20T11:42:02.271Z,97954.20
2019-05-20T11:44:35.801Z,97951.05
2019-05-20T11:47:06.331Z,97939.39
2019-05-20T11:49:37.162Z,97942.17
2019-05-20T11:52:07.924Z,97940.50
2019-05-20T11:54:39.181Z,97940.51
2019-05-20T11:57:09.776Z,97938.66
2019-05-20T11:59:40.821Z,97936.31
2019-05-20T12:02:11.055Z,97929.08
2019-05-20T12:04:44.318Z,97920.42
2019-05-20T12:07:14.929Z,97914.11
2019-05-20T12:09:49.715Z,97908.25
2019-05-20T12:12:17.904Z,97904.67
2019-05-20T12:14:48.040Z,97906.41
2019-05-20T12:19:47.620Z,97903.33
2019-05-20T12:22:18.866Z,97898.50
2019-05-20T12:24:51.621Z,97904.92
2019-05-20T12:27:21.114Z,97900.28
2019-05-20T12:29:51.219Z,97900.33
2019-05-20T12:32:22.073Z,97900.21
2019-05-20T12:34:52.854Z,97914.05
2019-05-20T12:37:22.945Z,97909.59
2019-05-20T12:40:06.364Z,97908.62
2019-05-20T12:42:25.902Z,97911.17
2019-05-20T12:44:56.406Z,97911.02
2019-05-20T12:47:27.415Z,97908.00
2019-05-20T12:49:58.606Z,97907.69
2019-05-20T12:52:28.755Z,97898.06
2019-05-20T12:55:07.976Z,97905.02
2019-05-20T12:57:31.591Z,97900.33
2019-05-20T13:00:01.794Z,97893.66
2019-05-20T13:02:31.717Z,97898.56
2019-05-20T13:05:02.185Z,97894.58
2019-05-20T13:07:32.963Z,97888.75
2019-05-20T13:10:03.663Z,97890.30
2019-05-20T13:12:33.318Z,97892.30
2019-05-20T13:15:05.634Z,97889.02
2019-05-20T13:17:37.344Z,97824.97
2019-05-20T13:20:08.417Z,97887.36
2019-05-20T13:22:39.589Z,97903.52
2019-05-20T13:25:11.747Z,97832.18
2019-05-20T13:27:42.350Z,97824.12
2019-05-20T13:30:13.407Z,97897.09
2019-05-20T13:32:43.922Z,97895.74
2019-05-20T13:37:44.167Z,97909.00
2019-05-20T13:40:15.507Z,97913.23
2019-05-20T13:42:45.665Z,97921.41
2019-05-20T13:45:16.009Z,97914.54
2019-05-20T13:47:46.378Z,97913.08
2019-05-20T13:50:16.881Z,97917.75
2019-05-20T13:52:47.158Z,97893.27
2019-05-20T13:55:18.156Z,97901.72
2019-05-20T13:57:48.265Z,97953.34
2019-05-20T14:00:20.101Z,97962.39
2019-05-20T14:02:50.922Z,97971.95
2019-05-20T14:05:22.141Z,97971.00
2019-05-20T14:07:55.825Z,97970.70
2019-05-20T14:10:26.428Z,97973.09
2019-05-20T14:12:56.995Z,97982.04
2019-05-20T14:15:27.494Z,97985.83
2019-05-20T14:17:57.608Z,97996.66
2019-05-20T14:20:28.198Z,97991.46
2019-05-20T14:22:58.410Z,97997.02
2019-05-20T14:25:31.840Z,97998.77
2019-05-20T14:28:03.307Z,98007.13
2019-05-20T14:30:33.967Z,98008.09
2019-05-20T14:33:05.146Z,98004.11
2019-05-20T14:35:35.687Z,98003.40
2019-05-20T14:38:12.566Z,98011.14
2019-05-20T14:40:43.435Z,98012.36
2019-05-20T14:43:28.204Z,98016.62
2019-05-20T14:46:06.663Z,98017.55
2019-05-20T14:48:37.306Z,98025.36
2019-05-20T14:51:11.689Z,98029.41
2019-05-20T14:53:47.051Z,98016.88
2019-05-20T14:56:17.836Z,98017.96
2019-05-20T14:58:51.579Z,98018.26
2019-05-20T15:01:28.972Z,98019.83
2019-05-20T15:04:06.195Z,98024.48
2019-05-20T15:06:38.452Z,98021.70
2019-05-20T15:09:11.058Z,98025.09
2019-05-20T15:11:52.032Z,97990.74
2019-05-20T15:14:45.753Z,98018.87
2019-05-20T15:17:21.162Z,98015.43
2019-05-20T15:20:07.112Z,98015.80
2019-05-20T15:22:47.502Z,98019.17
2019-05-20T15:25:45.778Z,98011.81
2019-05-20T15:28:30.804Z,98012.64
2019-05-20T15:31:06.779Z,98008.11
2019-05-20T15:33:41.443Z,98004.81
2019-05-20T15:36:20.852Z,98008.06
2019-05-20T15:38:58.467Z,98012.55
2019-05-20T15:41:33.017Z,98011.72
2019-05-20T15:44:10.386Z,98004.31
2019-05-20T15:46:44.830Z,97934.09
2019-05-20T15:49:25.858Z,97997.95
2019-05-20T15:52:05.560Z,97985.80
2019-05-20T15:54:40.433Z,97986.67
2019-05-20T15:57:23.833Z,97981.28
2019-05-20T16:00:13.812Z,97980.64
2019-05-20T16:02:52.607Z,97978.38
2019-05-20T16:05:45.443Z,97981.13
2019-05-20T16:08:22.930Z,97980.50
2019-05-20T16:10:57.382Z,97975.94
2019-05-20T16:13:31.391Z,97980.84
2019-05-20T16:16:06.455Z,97910.16
2019-05-20T16:18:53.695Z,97984.02
2019-05-20T16:21:29.567Z,97986.68
2019-05-20T16:24:00.381Z,97989.34
2019-05-20T16:26:35.963Z,97990.53
2019-05-20T16:29:08.010Z,97992.75
2019-05-20T16:31:38.763Z,97999.70
2019-05-20T16:34:10.543Z,97999.68
2019-05-20T16:36:41.702Z,97998.03
2019-05-20T16:39:14.382Z,98006.70
2019-05-20T16:41:45.627Z,97998.27
2019-05-20T16:44:18.621Z,98000.25
2019-05-20T16:46:51.179Z,97997.96
2019-05-20T16:49:22.832Z,98002.63
2019-05-20T16:51:54.611Z,98007.11
2019-05-20T16:54:26.188Z,97999.73
2019-05-20T16:56:57.854Z,97997.92
2019-05-20T16:59:28.325Z,97918.16
2019-05-20T17:01:59.492Z,97994.36
2019-05-20T17:04:34.399Z,97993.27
2019-05-20T17:07:09.606Z,97988.75
2019-05-20T17:09:44.626Z,97990.12
2019-05-20T17:12:15.111Z,97985.84
2019-05-20T17:14:45.284Z,97992.67
2019-05-20T17:17:15.315Z,97982.23
2019-05-20T17:19:46.894Z,97987.83
2019-05-20T17:22:19.635Z,97981.61
2019-05-20T17:24:49.893Z,97982.64
2019-05-20T17:27:21.156Z,97981.06
2019-05-20T17:29:52.172Z,97978.58
2019-05-20T17:32:24.579Z,97977.58
2019-05-20T17:34:56.808Z,97977.45
2019-05-20T17:37:28.998Z,97983.02
2019-05-20T17:40:01.383Z,97984.84
2019-05-20T17:42:32.554Z,97986.02
2019-05-20T17:45:05.781Z,97986.64
2019-05-20T17:47:37.006Z,97996.97
2019-05-20T17:50:15.792Z,97989.00
2019-05-20T17:52:49.869Z,97990.83
2019-05-20T17:55:21.671Z,97985.75
2019-05-20T17:57:55.819Z,97982.50
2019-05-20T18:00:27.431Z,97981.78
2019-05-20T18:03:08.115Z,97976.72
2019-05-20T18:05:41.093Z,97976.11
2019-05-20T18:08:12.945Z,97979.41
2019-05-20T18:10:44.397Z,97965.64
2019-05-20T18:13:17.111Z,97967.58
2019-05-20T18:15:52.417Z,97971.48
2019-05-20T18:18:24.690Z,97967.69
2019-05-20T18:20:56.593Z,97961.89
2019-05-20T18:23:27.970Z,97962.58
2019-05-20T18:25:59.027Z,97961.21
2019-05-20T18:28:32.182Z,97958.31
2019-05-20T18:31:04.535Z,97965.12
2019-05-20T18:33:37.294Z,97971.20
2019-05-20T18:36:10.021Z,97980.63
2019-05-20T18:38:43.266Z,97977.66
2019-05-20T18:41:20.302Z,97979.06
2019-05-20T18:43:54.594Z,97988.52
2019-05-20T18:46:30.439Z,97985.52
2019-05-20T18:49:02.946Z,97983.32
2019-05-20T18:51:42.643Z,97902.80
2019-05-20T18:54:18.617Z,97983.66
2019-05-20T18:56:50.798Z,97984.05
2019-05-20T18:59:27.760Z,97980.72
2019-05-20T19:02:06.385Z,97984.13
2019-05-20T19:04:38.059Z,97984.56
2019-05-20T19:07:09.703Z,97987.94
2019-05-20T19:09:42.236Z,97996.48
2019-05-20T19:12:14.702Z,97990.73
2019-05-20T19:14:46.347Z,97990.70
2019-05-20T19:17:18.022Z,97984.45
2019-05-20T19:19:50.609Z,97982.98
2019-05-20T19:22:22.078Z,97983.84
2019-05-20T19:24:52.568Z,97974.76
2019-05-20T19:27:25.850Z,97978.32
2019-05-20T19:29:58.136Z,97970.73
2019-05-20T19:32:32.069Z,97976.74
2019-05-20T19:35:07.947Z,97982.52
2019-05-20T19:37:41.043Z,97979.02
2019-05-20T19:40:13.040Z,97973.38
2019-05-20T19:42:44.436Z,97976.28
2019-05-20T19:45:17.551Z,97979.02
2019-05-20T19:47:50.562Z,97983.23
2019-05-20T19:50:22.330Z,97977.67
2019-05-20T19:52:52.936Z,97977.93
2019-05-20T19:55:23.260Z,97981.04
2019-05-20T19:57:57.802Z,97982.98
2019-05-20T20:00:30.499Z,97982.56
2019-05-20T20:03:03.615Z,97984.90
2019-05-20T20:05:36.625Z,97997.12
2019-05-20T20:08:07.997Z,97995.02
2019-05-20T20:10:40.668Z,97991.30
2019-05-20T20:13:13.584Z,97994.73
2019-05-20T20:15:46.033Z,97987.06
2019-05-20T20:18:17.078Z,97988.14
2019-05-20T20:20:48.844Z,97980.55
2019-05-20T20:23:19.389Z,97978.55
2019-05-20T20:25:50.785Z,97988.81
2019-05-20T20:28:21.935Z,97990.18
2019-05-20T20:30:54.030Z,97989.80
2019-05-20T20:33:25.636Z,97997.44
2019-05-20T20:35:57.887Z,97993.22
2019-05-20T20:38:29.176Z,97988.73
2019-05-20T20:41:01.412Z,97998.63
2019-05-20T20:43:33.207Z,98002.27
2019-05-20T20:46:05.412Z,98001.95
2019-05-20T20:48:37.673Z,97999.62
2019-05-20T20:51:09.690Z,97993.62
2019-05-20T20:53:41.833Z,97998.27
2019-05-20T20:56:24.639Z,98003.08
2019-05-20T20:58:45.564Z,98002.53
2019-05-20T21:01:16.098Z,98005.70
2019-05-20T21:03:46.735Z,98003.66
2019-05-20T21:06:18.184Z,97998.50
2019-05-20T21:08:49.802Z,98006.63
2019-05-20T21:11:21.127Z,98004.84
2019-05-20T21:13:51.633Z,98004.26
2019-05-20T21:16:21.778Z,98004.45
2019-05-20T21:18:51.755Z,98010.73
2019-05-20T21:21:27.137Z,98013.77
2019-05-20T21:23:58.201Z,98016.63
2019-05-20T21:26:29.546Z,98016.42
2019-05-20T21:29:01.005Z,98017.78
2019-05-20T21:31:30.978Z,98018.48
2019-05-20T21:34:01.047Z,98014.52
2019-05-20T21:36:46.193Z,98024.39
2019-05-20T21:39:07.700Z,98018.66
2019-05-20T21:41:42.299Z,98016.00
2019-05-20T21:44:13.052Z,98014.24
2019-05-20T21:46:45.080Z,98020.63
2019-05-20T21:49:17.335Z,98016.83
2019-05-20T21:51:49.909Z,98023.01
2019-05-20T21:54:22.152Z,98023.48
2019-05-20T21:56:58.527Z,98020.06
2019-05-20T21:59:28.706Z,98021.16
2019-05-20T22:02:00.984Z,98015.41
2019-05-20T22:04:34.275Z,98017.47
2019-05-20T22:07:06.111Z,98012.28
2019-05-20T22:09:39.199Z,98009.86
2019-05-20T22:14:44.609Z,98010.83
2019-05-20T22:17:17.450Z,98012.77
2019-05-20T22:19:55.953Z,98006.95
2019-05-20T22:22:53.005Z,98011.19
2019-05-20T22:25:26.049Z,98003.21
2019-05-20T22:27:58.022Z,97994.70
2019-05-20T22:30:34.797Z,98000.03
2019-05-20T22:33:05.697Z,97997.67
2019-05-20T22:35:39.435Z,97993.38
2019-05-20T22:38:14.175Z,97992.89
2019-05-20T22:40:48.353Z,97990.52
2019-05-20T22:43:18.475Z,97994.23
2019-05-20T22:45:48.827Z,97988.41
2019-05-20T22:48:22.070Z,97987.31
2019-05-20T22:50:53.418Z,97985.24
2019-05-20T22:53:24.617Z,97976.26
2019-05-20T22:55:54.754Z,97972.05
2019-05-20T22:58:24.813Z,97964.05
2019-05-20T23:00:55.016Z,97967.44
2019-05-20T23:03:25.014Z,97968.02
2019-05-20T23:05:55.605Z,97960.03
2019-05-20T23:08:25.711Z,97960.63
2019-05-20T23:10:55.838Z,97963.86
2019-05-20T23:13:25.868Z,97958.76
2019-05-20T23:15:56.142Z,97961.67
2019-05-20T23:18:26.265Z,97954.55
2019-05-20T23:20:56.296Z,97953.72
2019-05-20T23:23:26.169Z,97956.14
2019-05-20T23:25:56.617Z,97953.44
2019-05-20T23:28:26.959Z,97958.63
2019-05-20T23:30:57.448Z,97957.50
2019-05-20T23:33:28.308Z,97959.53
2019-05-20T23:35:58.170Z,97956.57
2019-05-20T23:38:29.379Z,97962.97
2019-05-20T23:41:00.323Z,97961.84
2019-05-20T23:43:30.738Z,97959.21
2019-05-20T23:46:00.845Z,97960.47
2019-05-20T23:48:32.007Z,97958.58
2019-05-20T23:51:02.031Z,97963.49
2019-05-20T23:53:32.045Z,97961.95
2019-05-20T23:56:02.110Z,97961.16
2019-05-20T23:58:32.927Z,97966.44
